Time;durP1;ratioP1;P1;durP2;ratioP2;P2;SDS_P1;SDS_P2;PMS_P1;PMS_P2;Temp;Humidity;BMP_temperature;BMP_pressure;BME280_temperature;BME280_humidity;BME280_pressure;Samples;Min_cycle;Max_cycle;Signal;HPM_P1;HPM_P2
2022/03/03 00:02:43;0.00;0.00;0.62;0.00;0.00;0.62;6.50;5.33;;;24.20;21.70;;;;;;2249524;61;20396;-67
2022/03/03 00:05:29;0.00;0.00;0.62;0.00;0.00;0.62;7.30;5.67;;;24.20;21.70;;;;;;2249243;61;20728;-67
2022/03/03 00:08:14;0.00;0.00;0.62;0.00;0.00;0.62;6.90;6.30;;;24.20;21.40;;;;;;2249399;61;20380;-68
2022/03/03 00:10:58;0.00;0.00;0.62;0.00;0.00;0.62;7.90;6.07;;;24.20;21.20;;;;;;2252046;61;20413;-67
2022/03/03 00:13:43;0.00;0.00;0.62;0.00;0.00;0.62;7.60;6.90;;;24.10;21.00;;;;;;2249296;61;20401;-68
2022/03/03 00:16:27;0.00;0.00;0.62;0.00;0.00;0.62;6.90;5.87;;;24.10;20.90;;;;;;2249410;61;20361;-67
2022/03/03 00:19:13;0.00;0.00;0.62;0.00;0.00;0.62;7.10;6.40;;;24.10;20.80;;;;;;2249453;61;20595;-67
2022/03/03 00:21:58;0.00;0.00;0.62;0.00;0.00;0.62;7.97;7.17;;;24.10;20.80;;;;;;2249030;61;20380;-66
2022/03/03 00:24:43;0.00;0.00;0.62;0.00;0.00;0.62;8.40;7.00;;;24.10;20.70;;;;;;2249720;61;20365;-66
2022/03/03 00:27:27;0.00;0.00;0.62;0.00;0.00;0.62;7.80;7.00;;;24.00;20.60;;;;;;2249571;61;20368;-66
2022/03/03 00:30:12;0.00;0.00;0.62;0.00;0.00;0.62;8.17;7.37;;;24.00;20.60;;;;;;2251679;61;20408;-67
2022/03/03 00:32:57;0.00;0.00;0.62;0.00;0.00;0.62;7.73;6.97;;;24.00;20.50;;;;;;2249578;61;20412;-67
2022/03/03 00:35:43;0.00;0.00;0.62;0.00;0.00;0.62;9.37;8.17;;;23.90;20.40;;;;;;2249229;61;20369;-67
2022/03/03 00:38:28;0.00;0.00;0.62;0.00;0.00;0.62;8.63;7.73;;;23.90;20.40;;;;;;2249337;61;20392;-66
2022/03/03 00:41:13;0.00;0.00;0.62;0.00;0.00;0.62;10.23;8.40;;;23.90;20.40;;;;;;2249556;61;20365;-67
2022/03/03 00:43:57;0.00;0.00;0.62;0.00;0.00;0.62;8.90;7.77;;;23.80;20.30;;;;;;2248894;61;20635;-65
2022/03/03 00:46:42;0.00;0.00;0.62;0.00;0.00;0.62;8.83;8.03;;;23.80;20.20;;;;;;2249783;61;20442;-68
2022/03/03 00:49:26;0.00;0.00;0.62;0.00;0.00;0.62;9.33;8.00;;;23.80;20.20;;;;;;2249582;61;20396;-66
2022/03/03 00:52:12;0.00;0.00;0.62;0.00;0.00;0.62;8.50;7.43;;;23.80;20.30;;;;;;2251369;61;20807;-67
2022/03/03 00:54:57;0.00;0.00;0.62;0.00;0.00;0.62;9.87;8.47;;;23.70;20.20;;;;;;2249728;61;20686;-66
2022/03/03 00:57:42;0.00;0.00;0.62;0.00;0.00;0.62;8.83;7.83;;;23.70;20.20;;;;;;2248924;61;20396;-65
2022/03/03 01:00:27;0.00;0.00;0.62;0.00;0.00;0.62;8.63;7.60;;;23.60;20.10;;;;;;2249396;61;20365;-67
2022/03/03 01:03:12;0.00;0.00;0.62;0.00;0.00;0.62;9.13;8.10;;;23.60;20.10;;;;;;2249566;61;20436;-65
2022/03/03 01:05:56;0.00;0.00;0.62;0.00;0.00;0.62;9.50;8.60;;;23.60;20.10;;;;;;2249141;61;20398;-66
2022/03/03 01:08:42;0.00;0.00;0.62;0.00;0.00;0.62;8.53;7.73;;;23.50;20.10;;;;;;2249785;61;20437;-65
2022/03/03 01:11:27;0.00;0.00;0.62;0.00;0.00;0.62;8.73;7.87;;;23.50;20.60;;;;;;2249426;61;20581;-66
2022/03/03 01:14:11;0.00;0.00;0.62;0.00;0.00;0.62;9.87;7.80;;;23.40;20.00;;;;;;2249023;61;20403;-66
2022/03/03 01:16:56;0.00;0.00;0.62;0.00;0.00;0.62;10.53;8.63;;;23.40;20.00;;;;;;2249678;61;20365;-67
2022/03/03 01:19:41;0.00;0.00;0.62;0.00;0.00;0.62;8.43;7.57;;;23.40;20.00;;;;;;2248807;61;20448;-66
2022/03/03 01:22:26;0.00;0.00;0.62;0.00;0.00;0.62;9.30;8.40;;;23.30;20.00;;;;;;2249185;61;20380;-66
2022/03/03 01:25:11;0.00;0.00;0.62;0.00;0.00;0.62;9.13;8.20;;;23.30;20.00;;;;;;2249713;61;20404;-66
2022/03/03 01:27:56;0.00;0.00;0.62;0.00;0.00;0.62;10.30;8.87;;;23.30;20.00;;;;;;2249042;61;20477;-67
2022/03/03 01:30:41;0.00;0.00;0.62;0.00;0.00;0.62;9.40;8.37;;;23.20;19.90;;;;;;2249730;61;20404;-66
2022/03/03 01:33:25;0.00;0.00;0.62;0.00;0.00;0.62;8.57;7.67;;;23.20;20.50;;;;;;2249346;61;20379;-67
2022/03/03 01:36:10;0.00;0.00;0.62;0.00;0.00;0.62;9.47;8.57;;;23.20;20.00;;;;;;2248938;61;20412;-67
2022/03/03 01:38:54;0.00;0.00;0.62;0.00;0.00;0.62;9.27;8.37;;;23.20;20.00;;;;;;2249623;61;20408;-68
2022/03/03 01:41:41;0.00;0.00;0.62;0.00;0.00;0.62;8.87;8.00;;;23.10;19.90;;;;;;2248754;61;20650;-65
2022/03/03 01:44:26;0.00;0.00;0.62;0.00;0.00;0.62;7.97;7.17;;;23.10;19.90;;;;;;2249190;61;20488;-66
2022/03/03 01:47:18;0.00;0.00;0.62;0.00;0.00;0.62;9.10;8.30;;;23.00;19.90;;;;;;2249660;61;20369;-66
2022/03/03 01:50:04;0.00;0.00;0.62;0.00;0.00;0.62;9.60;8.60;;;23.00;19.90;;;;;;2249740;61;20705;-66
2022/03/03 01:52:48;0.00;0.00;0.62;0.00;0.00;0.62;9.27;8.27;;;23.00;19.90;;;;;;2250132;61;20419;-65
2022/03/03 01:55:33;0.00;0.00;0.62;0.00;0.00;0.62;8.50;7.70;;;22.90;19.90;;;;;;2252188;61;20856;-66
2022/03/03 01:58:19;0.00;0.00;0.62;0.00;0.00;0.62;9.17;8.27;;;22.90;20.40;;;;;;2249372;61;20525;-67
2022/03/03 02:01:06;0.00;0.00;0.62;0.00;0.00;0.62;9.37;8.37;;;22.90;19.90;;;;;;2250225;61;20369;-67
2022/03/03 02:03:51;0.00;0.00;0.62;0.00;0.00;0.62;9.33;8.17;;;22.90;19.90;;;;;;2251747;61;20749;-66
2022/03/03 02:06:37;0.00;0.00;0.62;0.00;0.00;0.62;8.47;7.57;;;22.80;19.80;;;;;;2249939;61;20361;-67
2022/03/03 02:09:22;0.00;0.00;0.62;0.00;0.00;0.62;8.63;7.83;;;22.80;19.90;;;;;;2250128;61;20759;-67
2022/03/03 02:12:07;0.00;0.00;0.62;0.00;0.00;0.62;9.00;8.00;;;22.80;19.80;;;;;;2251702;61;20385;-67
2022/03/03 02:14:53;0.00;0.00;0.62;0.00;0.00;0.62;9.07;8.17;;;22.70;19.80;;;;;;2250069;61;20705;-68
2022/03/03 02:17:38;0.00;0.00;0.62;0.00;0.00;0.62;9.23;8.33;;;22.70;19.80;;;;;;2249688;61;20630;-66
2022/03/03 02:20:26;0.00;0.00;0.62;0.00;0.00;0.62;9.47;8.60;;;22.70;19.80;;;;;;2249480;61;20372;-66
2022/03/03 02:23:11;0.00;0.00;0.62;0.00;0.00;0.62;10.27;8.17;;;22.60;19.80;;;;;;2250454;61;20948;-66
2022/03/03 02:25:56;0.00;0.00;0.62;0.00;0.00;0.62;9.30;8.40;;;22.60;19.70;;;;;;2250091;61;20408;-67
2022/03/03 02:28:42;0.00;0.00;0.62;0.00;0.00;0.62;10.77;8.10;;;22.60;19.80;;;;;;2250256;61;20704;-67
2022/03/03 02:31:27;0.00;0.00;0.62;0.00;0.00;0.62;9.40;8.50;;;22.50;19.70;;;;;;2250187;61;20364;-67
2022/03/03 02:34:12;0.00;0.00;0.62;0.00;0.00;0.62;8.77;7.87;;;22.50;19.70;;;;;;2251557;61;20443;-67
2022/03/03 02:36:58;0.00;0.00;0.62;0.00;0.00;0.62;9.10;8.20;;;22.50;19.70;;;;;;2251817;61;20413;-64
2022/03/03 02:39:43;0.00;0.00;0.62;0.00;0.00;0.62;10.20;8.70;;;22.40;19.60;;;;;;2249804;61;20481;-66
2022/03/03 02:42:27;0.00;0.00;0.62;0.00;0.00;0.62;9.50;8.57;;;22.40;19.60;;;;;;2249475;61;20396;-66
2022/03/03 02:45:12;0.00;0.00;0.62;0.00;0.00;0.62;9.13;8.30;;;22.40;19.60;;;;;;2249924;61;20369;-67
2022/03/03 02:47:56;0.00;0.00;0.62;0.00;0.00;0.62;9.90;8.90;;;22.30;19.50;;;;;;2249974;61;20392;-67
2022/03/03 02:50:41;0.00;0.00;0.62;0.00;0.00;0.62;9.10;8.20;;;22.30;19.50;;;;;;2249951;61;20392;-67
2022/03/03 02:53:27;0.00;0.00;0.62;0.00;0.00;0.62;9.10;8.20;;;22.30;19.50;;;;;;2252295;61;20497;-67
2022/03/03 02:56:11;0.00;0.00;0.62;0.00;0.00;0.62;9.60;8.47;;;22.30;19.60;;;;;;2251772;61;20384;-66
2022/03/03 02:58:56;0.00;0.00;0.62;0.00;0.00;0.62;9.30;8.40;;;22.20;19.50;;;;;;2249635;61;20384;-67
2022/03/03 03:01:40;0.00;0.00;0.62;0.00;0.00;0.62;11.13;9.33;;;22.20;19.50;;;;;;2250017;61;20372;-67
2022/03/03 03:04:25;0.00;0.00;0.62;0.00;0.00;0.62;8.70;7.80;;;22.20;19.50;;;;;;2249446;61;20392;-65
2022/03/03 03:07:09;0.00;0.00;0.62;0.00;0.00;0.62;9.70;8.70;;;22.10;19.50;;;;;;2249948;61;20364;-67
2022/03/03 03:09:55;0.00;0.00;0.62;0.00;0.00;0.62;10.80;9.23;;;22.10;19.50;;;;;;2249943;61;20427;-68
2022/03/03 03:12:40;0.00;0.00;0.62;0.00;0.00;0.62;9.30;8.10;;;22.10;19.50;;;;;;2249292;61;20505;-67
2022/03/03 03:15:24;0.00;0.00;0.62;0.00;0.00;0.62;7.60;6.90;;;22.00;19.40;;;;;;2249988;61;20364;-67
2022/03/03 03:18:10;0.00;0.00;0.62;0.00;0.00;0.62;8.90;8.00;;;22.00;19.40;;;;;;2249200;61;20388;-65
2022/03/03 03:20:55;0.00;0.00;0.62;0.00;0.00;0.62;8.90;8.03;;;22.00;19.40;;;;;;2249440;61;20356;-66
2022/03/03 03:23:40;0.00;0.00;0.62;0.00;0.00;0.62;8.60;7.70;;;22.00;19.40;;;;;;2250057;61;20770;-67
2022/03/03 03:26:25;0.00;0.00;0.62;0.00;0.00;0.62;9.40;8.47;;;22.00;19.40;;;;;;2249545;61;20472;-66
2022/03/03 03:29:10;0.00;0.00;0.62;0.00;0.00;0.62;9.20;8.33;;;21.90;19.40;;;;;;2252270;61;20388;-65
2022/03/03 03:31:55;0.00;0.00;0.62;0.00;0.00;0.62;9.60;8.60;;;21.90;19.40;;;;;;2249497;61;20431;-65
2022/03/03 03:34:39;0.00;0.00;0.62;0.00;0.00;0.62;9.40;8.50;;;21.90;19.40;;;;;;2249259;61;20361;-67
2022/03/03 03:37:24;0.00;0.00;0.62;0.00;0.00;0.62;9.00;8.03;;;21.90;19.40;;;;;;2249947;61;20713;-65
2022/03/03 03:40:10;0.00;0.00;0.62;0.00;0.00;0.62;9.60;8.70;;;21.80;19.30;;;;;;2249150;61;20403;-66
2022/03/03 03:42:56;0.00;0.00;0.62;0.00;0.00;0.62;9.37;8.40;;;21.80;19.30;;;;;;2249424;61;20663;-66
2022/03/03 03:45:41;0.00;0.00;0.62;0.00;0.00;0.62;12.00;8.10;;;21.80;19.40;;;;;;2249863;61;20784;-67
2022/03/03 03:48:25;0.00;0.00;0.62;0.00;0.00;0.62;9.43;8.53;;;21.70;19.30;;;;;;2251519;61;20416;-67
2022/03/03 03:51:10;0.00;0.00;0.62;0.00;0.00;0.62;9.13;8.33;;;21.70;19.30;;;;;;2252010;61;20403;-68
2022/03/03 03:53:54;0.00;0.00;0.62;0.00;0.00;0.62;10.70;9.00;;;21.70;19.30;;;;;;2249764;61;20364;-67
2022/03/03 03:56:39;0.00;0.00;0.62;0.00;0.00;0.62;9.50;8.60;;;21.70;19.30;;;;;;2251353;61;20361;-67
2022/03/03 03:59:24;0.00;0.00;0.62;0.00;0.00;0.62;8.83;7.93;;;21.70;19.30;;;;;;2249789;61;20393;-67
2022/03/03 04:02:10;0.00;0.00;0.62;0.00;0.00;0.62;8.70;7.90;;;21.60;19.30;;;;;;2249144;61;20393;-67
2022/03/03 04:04:55;0.00;0.00;0.62;0.00;0.00;0.62;10.10;9.00;;;21.60;19.30;;;;;;2249417;61;20416;-67
2022/03/03 04:07:40;0.00;0.00;0.62;0.00;0.00;0.62;11.03;8.63;;;21.60;19.30;;;;;;2250070;61;20473;-67
2022/03/03 04:10:24;0.00;0.00;0.62;0.00;0.00;0.62;9.10;8.20;;;21.60;19.40;;;;;;2249107;61;20432;-66
2022/03/03 04:13:09;0.00;0.00;0.62;0.00;0.00;0.62;9.63;8.73;;;21.50;19.30;;;;;;2249320;61;20385;-66
2022/03/03 04:15:55;0.00;0.00;0.62;0.00;0.00;0.62;9.50;8.60;;;21.50;19.30;;;;;;2249530;61;20478;-64
2022/03/03 04:18:40;0.00;0.00;0.62;0.00;0.00;0.62;9.40;7.83;;;21.50;19.30;;;;;;2248958;61;20732;-66
2022/03/03 04:21:24;0.00;0.00;0.62;0.00;0.00;0.62;9.33;8.43;;;21.40;19.30;;;;;;2249704;61;20413;-66
2022/03/03 04:24:10;0.00;0.00;0.62;0.00;0.00;0.62;9.20;8.30;;;21.40;19.30;;;;;;2249415;61;20412;-67
2022/03/03 04:26:56;0.00;0.00;0.62;0.00;0.00;0.62;13.13;8.70;;;21.40;19.30;;;;;;2249520;61;20599;-68
2022/03/03 04:29:41;0.00;0.00;0.62;0.00;0.00;0.62;9.37;8.43;;;21.40;19.30;;;;;;2249924;61;20569;-67
2022/03/03 04:32:26;0.00;0.00;0.62;0.00;0.00;0.62;8.23;7.43;;;21.40;19.30;;;;;;2248709;61;20384;-66
2022/03/03 04:35:11;0.00;0.00;0.62;0.00;0.00;0.62;8.83;8.03;;;21.30;19.20;;;;;;2249523;61;20368;-67
2022/03/03 04:37:55;0.00;0.00;0.62;0.00;0.00;0.62;9.17;8.30;;;21.30;19.20;;;;;;2249660;61;20744;-65
2022/03/03 04:40:40;0.00;0.00;0.62;0.00;0.00;0.62;9.73;8.80;;;21.30;19.30;;;;;;2249053;61;20720;-67
2022/03/03 04:43:24;0.00;0.00;0.62;0.00;0.00;0.62;10.27;8.13;;;21.30;19.80;;;;;;2249831;61;20431;-68
2022/03/03 04:46:09;0.00;0.00;0.62;0.00;0.00;0.62;9.33;8.40;;;21.20;19.20;;;;;;2249126;61;20473;-68
2022/03/03 04:48:59;0.00;0.00;0.62;0.00;0.00;0.62;8.40;7.50;;;21.20;19.20;;;;;;2249299;61;20756;-68
2022/03/03 04:51:44;0.00;0.00;0.62;0.00;0.00;0.62;10.60;8.73;;;21.20;19.30;;;;;;2249655;61;20832;-67
2022/03/03 04:54:28;0.00;0.00;0.62;0.00;0.00;0.62;10.00;9.00;;;21.20;19.30;;;;;;2248870;61;20732;-67
2022/03/03 04:57:13;0.00;0.00;0.62;0.00;0.00;0.62;9.30;8.30;;;21.20;19.30;;;;;;2249365;61;20716;-68
2022/03/03 04:59:58;0.00;0.00;0.62;0.00;0.00;0.62;9.30;8.30;;;21.10;19.20;;;;;;2249524;61;20396;-67
2022/03/03 05:02:42;0.00;0.00;0.62;0.00;0.00;0.62;9.10;8.20;;;21.10;19.20;;;;;;2249140;61;20388;-65
2022/03/03 05:05:28;0.00;0.00;0.62;0.00;0.00;0.62;9.57;8.57;;;21.10;19.30;;;;;;2249730;61;20592;-65
2022/03/03 05:08:12;0.00;0.00;0.62;0.00;0.00;0.62;11.13;10.10;;;21.10;19.30;;;;;;2249243;61;20364;-66
2022/03/03 05:10:57;0.00;0.00;0.62;0.00;0.00;0.62;10.07;9.07;;;21.00;19.20;;;;;;2248963;61;20364;-63
2022/03/03 05:13:41;0.00;0.00;0.62;0.00;0.00;0.62;9.73;8.80;;;21.00;19.20;;;;;;2249572;61;20360;-64
2022/03/03 05:16:26;0.00;0.00;0.62;0.00;0.00;0.62;10.97;9.00;;;21.00;19.20;;;;;;2248634;61;20368;-66
2022/03/03 05:19:11;0.00;0.00;0.62;0.00;0.00;0.62;8.70;7.87;;;21.00;19.20;;;;;;2249279;61;20393;-65
2022/03/03 05:21:57;0.00;0.00;0.62;0.00;0.00;0.62;9.80;8.53;;;21.00;19.20;;;;;;2249329;61;20420;-64
2022/03/03 05:24:42;0.00;0.00;0.62;0.00;0.00;0.62;10.10;8.80;;;20.90;19.20;;;;;;2249717;61;20369;-66
2022/03/03 05:27:27;0.00;0.00;0.62;0.00;0.00;0.62;9.30;8.27;;;20.90;19.20;;;;;;2250338;61;20368;-66
2022/03/03 05:30:12;0.00;0.00;0.62;0.00;0.00;0.62;9.43;8.57;;;20.90;19.30;;;;;;2249976;61;20360;-65
2022/03/03 05:32:57;0.00;0.00;0.62;0.00;0.00;0.62;9.07;8.17;;;20.90;19.30;;;;;;2249708;61;20404;-66
2022/03/03 05:35:46;0.00;0.00;0.62;0.00;0.00;0.62;10.07;9.17;;;20.80;19.20;;;;;;2250531;61;20412;-63
2022/03/03 05:38:34;0.00;0.00;0.62;0.00;0.00;0.62;12.20;10.00;;;20.80;19.20;;;;;;2250414;61;20384;-67
2022/03/03 05:41:19;0.00;0.00;0.62;0.00;0.00;0.62;10.70;9.67;;;20.80;19.20;;;;;;2250501;61;20480;-64
2022/03/03 05:44:05;0.00;0.00;0.62;0.00;0.00;0.62;9.60;8.60;;;20.80;19.10;;;;;;2251058;61;20601;-66
2022/03/03 05:46:50;0.00;0.00;0.62;0.00;0.00;0.62;10.07;9.13;;;20.80;19.10;;;;;;2249985;61;20364;-66
2022/03/03 05:49:36;0.00;0.00;0.62;0.00;0.00;0.62;9.77;8.77;;;20.70;19.00;;;;;;2250253;61;20437;-67
2022/03/03 05:52:21;0.00;0.00;0.62;0.00;0.00;0.62;11.40;10.10;;;20.70;19.00;;;;;;2249854;61;20777;-66
2022/03/03 05:55:08;0.00;0.00;0.62;0.00;0.00;0.62;10.40;9.40;;;20.70;19.00;;;;;;2249700;61;20396;-64
2022/03/03 05:57:56;0.00;0.00;0.62;0.00;0.00;0.62;8.83;8.03;;;20.70;19.00;;;;;;2250248;61;20442;-66
2022/03/03 06:00:43;0.00;0.00;0.62;0.00;0.00;0.62;10.00;9.00;;;20.70;19.10;;;;;;2249665;61;20396;-62
2022/03/03 06:03:30;0.00;0.00;0.62;0.00;0.00;0.62;9.33;8.50;;;20.60;19.10;;;;;;2249855;61;20461;-66
2022/03/03 06:06:19;0.00;0.00;0.62;0.00;0.00;0.62;10.00;9.00;;;20.60;19.10;;;;;;2249920;61;20592;-67
2022/03/03 06:09:09;0.00;0.00;0.62;0.00;0.00;0.62;9.87;8.83;;;20.60;19.20;;;;;;2249613;61;20444;-67
2022/03/03 06:12:04;0.00;0.00;0.62;0.00;0.00;0.62;9.33;8.43;;;20.60;19.10;;;;;;2249936;61;20373;-64
2022/03/03 06:14:55;0.00;0.00;0.62;0.00;0.00;0.62;10.60;7.90;;;20.60;19.20;;;;;;2249993;61;20384;-67
2022/03/03 06:17:42;0.00;0.00;0.62;0.00;0.00;0.62;8.37;7.50;;;20.60;19.20;;;;;;2249465;61;20365;-68
2022/03/03 06:20:28;0.00;0.00;0.62;0.00;0.00;0.62;7.90;6.93;;;20.60;19.10;;;;;;2250070;61;20365;-69
2022/03/03 06:23:13;0.00;0.00;0.62;0.00;0.00;0.62;7.30;6.60;;;20.50;19.10;;;;;;2249492;61;20385;-68
2022/03/03 06:26:03;0.00;0.00;0.62;0.00;0.00;0.62;8.33;7.53;;;20.50;19.10;;;;;;2249600;61;20708;-69
2022/03/03 06:28:49;0.00;0.00;0.62;0.00;0.00;0.62;7.93;7.13;;;20.50;19.10;;;;;;2250235;61;20816;-68
2022/03/03 06:31:33;0.00;0.00;0.62;0.00;0.00;0.62;7.50;6.80;;;20.50;19.10;;;;;;2249452;61;20385;-65
2022/03/03 06:34:20;0.00;0.00;0.62;0.00;0.00;0.62;8.10;7.30;;;20.50;19.10;;;;;;2250129;61;20632;-65
2022/03/03 06:37:06;0.00;0.00;0.62;0.00;0.00;0.62;6.20;5.60;;;20.50;19.20;;;;;;2249878;61;20720;-69
2022/03/03 06:39:50;0.00;0.00;0.62;0.00;0.00;0.62;8.37;6.80;;;20.50;19.30;;;;;;2249333;61;20768;-66
2022/03/03 06:42:35;0.00;0.00;0.62;0.00;0.00;0.62;7.93;7.10;;;20.50;19.30;;;;;;2250039;61;20415;-66
2022/03/03 06:45:24;0.00;0.00;0.62;0.00;0.00;0.62;7.83;6.37;;;20.50;19.30;;;;;;2249365;61;20760;-65
2022/03/03 06:48:09;0.00;0.00;0.62;0.00;0.00;0.62;6.03;5.43;;;20.50;19.40;;;;;;2252085;61;20364;-68
2022/03/03 06:50:55;0.00;0.00;0.62;0.00;0.00;0.62;7.27;6.57;;;20.50;19.40;;;;;;2250149;61;20361;-66
2022/03/03 06:53:42;0.00;0.00;0.62;0.00;0.00;0.62;6.00;5.37;;;20.50;19.40;;;;;;2249504;61;20364;-68
2022/03/03 06:56:30;0.00;0.00;0.62;0.00;0.00;0.62;6.00;5.40;;;20.50;19.40;;;;;;2250006;61;20734;-65
2022/03/03 06:59:17;0.00;0.00;0.62;0.00;0.00;0.62;8.00;5.50;;;20.50;19.50;;;;;;2249632;61;20396;-65
2022/03/03 07:02:04;0.00;0.00;0.62;0.00;0.00;0.62;6.33;4.83;;;20.50;19.50;;;;;;2249340;61;20592;-65
2022/03/03 07:04:51;0.00;0.00;0.62;0.00;0.00;0.62;5.37;4.87;;;20.50;19.50;;;;;;2250090;61;20416;-66
2022/03/03 07:07:37;0.00;0.00;0.62;0.00;0.00;0.62;6.53;5.60;;;20.50;19.50;;;;;;2249223;61;20433;-65
2022/03/03 07:10:25;0.00;0.00;0.62;0.00;0.00;0.62;5.70;5.10;;;20.50;19.50;;;;;;2249686;61;20393;-67
2022/03/03 07:13:09;0.00;0.00;0.62;0.00;0.00;0.62;4.80;4.40;;;20.50;19.60;;;;;;2249987;61;20643;-64
2022/03/03 07:15:59;0.00;0.00;0.62;0.00;0.00;0.62;5.50;5.00;;;20.50;19.60;;;;;;2249463;61;20594;-67
2022/03/03 07:18:49;0.00;0.00;0.62;0.00;0.00;0.62;4.80;4.40;;;20.50;19.60;;;;;;2252303;61;20764;-68
2022/03/03 07:21:48;0.00;0.00;0.62;0.00;0.00;0.62;6.70;5.37;;;20.50;19.60;;;;;;2249512;61;20504;-66
2022/03/03 07:24:39;0.00;0.00;0.62;0.00;0.00;0.62;5.03;4.50;;;20.50;19.60;;;;;;2249686;61;20361;-66
2022/03/03 07:27:25;0.00;0.00;0.62;0.00;0.00;0.62;5.10;4.60;;;20.50;19.60;;;;;;2250082;61;20372;-66
2022/03/03 07:30:13;0.00;0.00;0.62;0.00;0.00;0.62;5.53;5.03;;;20.50;19.60;;;;;;2249194;61;20388;-68
2022/03/03 07:33:06;0.00;0.00;0.62;0.00;0.00;0.62;7.70;4.70;;;20.50;19.70;;;;;;2249525;61;20521;-64
2022/03/03 07:35:56;0.00;0.00;0.62;0.00;0.00;0.62;4.50;4.10;;;20.50;19.70;;;;;;2249545;61;20574;-68
2022/03/03 07:38:43;0.00;0.00;0.62;0.00;0.00;0.62;5.00;4.60;;;20.60;19.70;;;;;;2249302;61;20392;-66
2022/03/03 07:41:29;0.00;0.00;0.62;0.00;0.00;0.62;4.73;4.17;;;20.50;19.70;;;;;;2249906;61;20444;-66
2022/03/03 07:44:14;0.00;0.00;0.62;0.00;0.00;0.62;4.40;4.00;;;20.60;19.80;;;;;;2251455;61;20356;-65
2022/03/03 07:46:59;0.00;0.00;0.62;0.00;0.00;0.62;5.10;4.00;;;20.60;19.80;;;;;;2249629;61;20364;-66
2022/03/03 07:49:45;0.00;0.00;0.62;0.00;0.00;0.62;4.47;4.07;;;20.60;20.30;;;;;;2249948;61;20356;-67
2022/03/03 07:52:32;0.00;0.00;0.62;0.00;0.00;0.62;4.80;4.40;;;20.60;19.80;;;;;;2249124;61;20384;-66
2022/03/03 07:55:17;0.00;0.00;0.62;0.00;0.00;0.62;5.73;4.20;;;20.60;19.80;;;;;;2249642;61;20459;-66
2022/03/03 07:58:03;0.00;0.00;0.62;0.00;0.00;0.62;4.60;3.80;;;20.60;19.80;;;;;;2249516;61;20361;-66
2022/03/03 08:00:50;0.00;0.00;0.62;0.00;0.00;0.62;4.13;3.73;;;20.60;19.80;;;;;;2249218;61;20437;-68
2022/03/03 08:03:36;0.00;0.00;0.62;0.00;0.00;0.62;4.53;4.00;;;20.60;19.80;;;;;;2249907;61;20385;-66
2022/03/03 08:06:21;0.00;0.00;0.62;0.00;0.00;0.62;4.20;3.77;;;20.60;19.80;;;;;;2249178;61;20376;-68
2022/03/03 08:09:09;0.00;0.00;0.62;0.00;0.00;0.62;5.00;4.50;;;20.60;19.80;;;;;;2249528;61;20376;-66
2022/03/03 08:11:54;0.00;0.00;0.62;0.00;0.00;0.62;4.60;4.20;;;20.60;19.80;;;;;;2249632;61;20728;-66
2022/03/03 08:14:39;0.00;0.00;0.62;0.00;0.00;0.62;4.60;4.10;;;20.70;19.90;;;;;;2249236;61;20364;-67
2022/03/03 08:17:24;0.00;0.00;0.62;0.00;0.00;0.62;4.80;4.30;;;20.70;20.00;;;;;;2249568;61;20384;-67
2022/03/03 08:20:10;0.00;0.00;0.62;0.00;0.00;0.62;4.73;3.93;;;20.70;20.00;;;;;;2251611;61;20464;-68
2022/03/03 08:22:56;0.00;0.00;0.62;0.00;0.00;0.62;5.00;3.70;;;20.70;19.90;;;;;;2249017;61;20459;-67
2022/03/03 08:25:42;0.00;0.00;0.62;0.00;0.00;0.62;4.60;3.90;;;20.70;20.00;;;;;;2249715;61;20494;-69
2022/03/03 08:28:27;0.00;0.00;0.62;0.00;0.00;0.62;4.53;3.40;;;20.70;19.90;;;;;;2249468;61;20716;-66
2022/03/03 08:31:19;0.00;0.00;0.62;0.00;0.00;0.62;4.77;3.80;;;20.80;20.00;;;;;;2249336;61;20361;-68
2022/03/03 08:34:12;0.00;0.00;0.62;0.00;0.00;0.62;3.90;3.50;;;20.80;20.00;;;;;;2249803;61;20416;-66
2022/03/03 08:37:00;0.00;0.00;0.62;0.00;0.00;0.62;3.93;3.47;;;20.80;20.00;;;;;;2249134;61;20579;-67
2022/03/03 08:39:46;0.00;0.00;0.62;0.00;0.00;0.62;4.40;3.33;;;20.80;20.00;;;;;;2249477;61;20396;-65
2022/03/03 08:42:36;0.00;0.00;0.62;0.00;0.00;0.62;3.30;2.97;;;20.80;20.10;;;;;;2249382;61;20836;-68
2022/03/03 08:45:22;0.00;0.00;0.62;0.00;0.00;0.62;3.70;2.90;;;20.80;20.10;;;;;;2250058;61;20460;-67
2022/03/03 08:48:14;0.00;0.00;0.62;0.00;0.00;0.62;4.20;3.30;;;20.90;20.10;;;;;;2251849;61;20604;-66
2022/03/03 08:51:00;0.00;0.00;0.62;0.00;0.00;0.62;3.83;3.43;;;20.90;20.10;;;;;;2250690;61;20372;-68
2022/03/03 08:53:46;0.00;0.00;0.62;0.00;0.00;0.62;3.83;3.23;;;20.90;20.10;;;;;;2250751;61;20591;-66
2022/03/03 08:56:30;0.00;0.00;0.62;0.00;0.00;0.62;3.63;3.13;;;20.90;20.20;;;;;;2250628;61;20433;-64
2022/03/03 08:59:16;0.00;0.00;0.62;0.00;0.00;0.62;4.40;3.63;;;20.90;20.20;;;;;;2250073;61;20646;-68
2022/03/03 09:02:01;0.00;0.00;0.62;0.00;0.00;0.62;4.40;3.73;;;20.90;20.20;;;;;;2250299;61;20388;-67
2022/03/03 09:04:46;0.00;0.00;0.62;0.00;0.00;0.62;3.80;3.40;;;21.00;20.20;;;;;;2250128;61;20370;-68
2022/03/03 09:07:31;0.00;0.00;0.62;0.00;0.00;0.62;3.60;3.13;;;21.00;20.30;;;;;;2249878;61;20356;-66
2022/03/03 09:10:17;0.00;0.00;0.62;0.00;0.00;0.62;3.17;2.80;;;21.00;20.20;;;;;;2250374;61;20368;-68
2022/03/03 09:13:02;0.00;0.00;0.62;0.00;0.00;0.62;4.20;3.80;;;21.00;20.20;;;;;;2252085;61;20412;-65
2022/03/03 09:15:47;0.00;0.00;0.62;0.00;0.00;0.62;3.90;3.27;;;21.00;20.30;;;;;;2250008;61;20360;-68
2022/03/03 09:18:33;0.00;0.00;0.62;0.00;0.00;0.62;4.00;3.60;;;21.00;20.30;;;;;;2250290;61;20368;-68
2022/03/03 09:21:18;0.00;0.00;0.62;0.00;0.00;0.62;3.30;2.87;;;21.10;20.30;;;;;;2249563;61;20623;-68
2022/03/03 09:24:03;0.00;0.00;0.62;0.00;0.00;0.62;2.93;2.63;;;21.10;20.40;;;;;;2250013;61;20704;-66
2022/03/03 09:26:48;0.00;0.00;0.62;0.00;0.00;0.62;3.47;3.17;;;21.10;20.30;;;;;;2249941;61;20370;-66
2022/03/03 09:29:33;0.00;0.00;0.62;0.00;0.00;0.62;3.40;2.90;;;21.10;20.30;;;;;;2249872;61;20804;-65
2022/03/03 09:32:19;0.00;0.00;0.62;0.00;0.00;0.62;3.37;3.07;;;21.20;20.40;;;;;;2250135;61;20388;-67
2022/03/03 09:35:05;0.00;0.00;0.62;0.00;0.00;0.62;3.07;2.57;;;21.20;20.40;;;;;;2249944;61;20372;-67
2022/03/03 09:37:51;0.00;0.00;0.62;0.00;0.00;0.62;3.00;2.70;;;21.20;20.40;;;;;;2249940;61;20779;-64
2022/03/03 09:40:35;0.00;0.00;0.62;0.00;0.00;0.62;4.37;3.40;;;21.20;20.40;;;;;;2250043;61;20423;-65
2022/03/03 09:43:21;0.00;0.00;0.62;0.00;0.00;0.62;3.20;2.90;;;21.20;20.40;;;;;;2249648;61;20764;-67
2022/03/03 09:46:06;0.00;0.00;0.62;0.00;0.00;0.62;3.13;2.83;;;21.30;20.50;;;;;;2249861;61;20396;-67
2022/03/03 09:48:52;0.00;0.00;0.62;0.00;0.00;0.62;3.27;2.97;;;21.30;20.50;;;;;;2250057;61;20369;-67
2022/03/03 09:51:36;0.00;0.00;0.62;0.00;0.00;0.62;2.77;2.53;;;21.30;20.50;;;;;;2249417;61;20388;-68
2022/03/03 09:54:21;0.00;0.00;0.62;0.00;0.00;0.62;3.30;2.53;;;21.30;20.50;;;;;;2250127;61;20361;-66
2022/03/03 09:57:05;0.00;0.00;0.62;0.00;0.00;0.62;2.93;2.60;;;21.40;20.60;;;;;;2249928;61;20360;-65
2022/03/03 09:59:54;0.00;0.00;0.62;0.00;0.00;0.62;2.80;2.50;;;21.40;20.60;;;;;;2249907;61;20428;-64
2022/03/03 10:02:57;0.00;0.00;0.62;0.00;0.00;0.62;3.47;2.97;;;21.40;20.60;;;;;;2249974;61;20776;-68
2022/03/03 10:05:47;0.00;0.00;0.62;0.00;0.00;0.62;3.83;3.10;;;21.50;20.70;;;;;;2249661;61;20364;-66
2022/03/03 10:08:31;0.00;0.00;0.62;0.00;0.00;0.62;3.90;2.63;;;21.50;20.70;;;;;;2249863;61;20451;-68
2022/03/03 10:11:17;0.00;0.00;0.62;0.00;0.00;0.62;3.43;2.97;;;21.50;20.70;;;;;;2249693;61;20353;-68
2022/03/03 10:14:01;0.00;0.00;0.62;0.00;0.00;0.62;3.07;2.60;;;21.50;20.70;;;;;;2249620;61;20388;-66
2022/03/03 10:16:47;0.00;0.00;0.62;0.00;0.00;0.62;3.33;2.70;;;21.60;20.80;;;;;;2250068;61;20377;-67
2022/03/03 10:19:32;0.00;0.00;0.62;0.00;0.00;0.62;3.13;2.40;;;21.60;20.80;;;;;;2249573;61;20844;-67
2022/03/03 10:22:23;0.00;0.00;0.62;0.00;0.00;0.62;3.40;2.63;;;21.70;20.80;;;;;;2249738;61;20383;-68
2022/03/03 10:25:10;0.00;0.00;0.62;0.00;0.00;0.62;3.17;2.70;;;21.70;20.80;;;;;;2250184;61;20767;-68
2022/03/03 10:27:55;0.00;0.00;0.62;0.00;0.00;0.62;3.17;2.60;;;21.70;20.80;;;;;;2249429;61;20368;-66
2022/03/03 10:31:00;0.00;0.00;0.62;0.00;0.00;0.62;3.50;2.90;;;21.80;20.90;;;;;;2249810;61;20360;-66
2022/03/03 10:33:48;0.00;0.00;0.62;0.00;0.00;0.62;3.40;2.93;;;21.80;20.90;;;;;;2249793;61;20376;-66
2022/03/03 10:36:34;0.00;0.00;0.62;0.00;0.00;0.62;2.97;2.67;;;21.80;20.80;;;;;;2249528;61;20428;-65
2022/03/03 10:39:20;0.00;0.00;0.62;0.00;0.00;0.62;3.77;3.40;;;21.80;20.80;;;;;;2250040;61;20784;-65
2022/03/03 10:42:13;0.00;0.00;0.62;0.00;0.00;0.62;3.33;3.03;;;21.90;20.90;;;;;;2249225;61;20411;-66
2022/03/03 10:45:08;0.00;0.00;0.62;0.00;0.00;0.62;3.10;2.73;;;21.90;20.90;;;;;;2249821;61;20356;-67
2022/03/03 10:48:01;0.00;0.00;0.62;0.00;0.00;0.62;3.50;3.00;;;22.00;20.90;;;;;;2250168;61;20368;-68
2022/03/03 10:50:47;0.00;0.00;0.62;0.00;0.00;0.62;3.77;2.80;;;22.00;21.00;;;;;;2249405;61;20353;-67
2022/03/03 10:53:33;0.00;0.00;0.62;0.00;0.00;0.62;3.37;3.07;;;22.00;20.90;;;;;;2250027;61;20388;-66
2022/03/03 10:56:19;0.00;0.00;0.62;0.00;0.00;0.62;3.90;3.23;;;22.10;21.50;;;;;;2249654;61;20438;-67